createdAt,value
2018-03-28T00:00:10.556Z,98021.52
2018-03-28T00:02:38.835Z,98029.85
2018-03-28T00:05:07.214Z,98024.29
2018-03-28T00:07:35.489Z,98013.64
2018-03-28T00:10:04.692Z,98031.02
2018-03-28T00:12:32.961Z,98027.58
2018-03-28T00:15:01.269Z,98033.71
2018-03-28T00:17:29.675Z,98028.59
2018-03-28T00:19:57.992Z,98022.66
2018-03-28T00:22:26.300Z,98017.28
2018-03-28T00:24:54.652Z,98019.98
2018-03-28T00:27:23.334Z,98032.34
2018-03-28T00:29:51.629Z,98019.78
2018-03-28T00:32:20.029Z,98023.62
2018-03-28T00:34:48.768Z,98014.95
2018-03-28T00:37:17.066Z,98021.61
2018-03-28T00:39:45.358Z,98014.84
2018-03-28T00:42:13.696Z,98008.32
2018-03-28T00:44:41.975Z,98019.80
2018-03-28T00:47:10.298Z,98015.73
2018-03-28T00:49:38.556Z,98020.45
2018-03-28T00:52:06.929Z,98014.11
2018-03-28T00:54:35.143Z,97999.59
2018-03-28T00:57:03.452Z,98020.91
2018-03-28T00:59:31.737Z,98015.71
2018-03-28T01:02:00.037Z,98013.08
2018-03-28T01:04:28.313Z,98016.05
2018-03-28T01:06:56.634Z,98010.23
2018-03-28T01:09:24.931Z,98013.00
2018-03-28T01:11:53.231Z,98055.22
2018-03-28T01:14:21.512Z,98005.38
2018-03-28T01:16:49.835Z,97993.52
2018-03-28T01:19:18.106Z,98009.06
2018-03-28T01:21:46.416Z,98008.54
2018-03-28T01:24:14.725Z,98006.98
2018-03-28T01:26:43.044Z,98010.36
2018-03-28T01:29:11.354Z,98009.97
2018-03-28T01:31:39.757Z,98012.71
2018-03-28T01:34:08.070Z,98005.70
2018-03-28T01:36:36.371Z,98003.07
2018-03-28T01:39:04.662Z,97996.36
2018-03-28T01:41:33.303Z,98006.31
2018-03-28T01:44:01.631Z,98003.13
2018-03-28T01:46:29.955Z,98005.86
2018-03-28T01:48:58.272Z,98001.70
2018-03-28T01:51:26.550Z,97985.56
2018-03-28T01:53:54.890Z,98000.62
2018-03-28T01:56:23.163Z,97993.69
2018-03-28T01:58:51.484Z,97993.54
2018-03-28T02:01:19.788Z,97994.44
2018-03-28T02:03:48.123Z,97989.39
2018-03-28T02:06:16.505Z,97994.79
2018-03-28T02:08:44.806Z,97997.17
2018-03-28T02:11:13.100Z,97998.31
2018-03-28T02:13:41.438Z,97999.94
2018-03-28T02:16:09.734Z,97996.30
2018-03-28T02:18:38.028Z,98002.62
2018-03-28T02:21:06.323Z,97988.86
2018-03-28T02:23:34.656Z,97993.61
2018-03-28T02:26:02.943Z,97991.47
2018-03-28T02:28:31.234Z,97992.75
2018-03-28T02:30:59.619Z,98002.53
2018-03-28T02:33:27.896Z,97992.92
2018-03-28T02:35:56.198Z,97993.12
2018-03-28T02:38:24.532Z,97984.61
2018-03-28T02:40:52.883Z,97991.53
2018-03-28T02:43:21.173Z,97992.52
2018-03-28T02:45:49.813Z,97994.55
2018-03-28T02:48:18.114Z,97988.27
2018-03-28T02:50:46.409Z,97995.64
2018-03-28T02:53:14.701Z,97995.55
2018-03-28T02:55:43.036Z,98002.32
2018-03-28T02:58:11.445Z,98001.41
2018-03-28T03:00:39.771Z,98008.98
2018-03-28T03:03:08.101Z,98026.68
2018-03-28T03:05:36.380Z,98010.81
2018-03-28T03:08:05.719Z,98019.84
2018-03-28T03:10:34.046Z,98012.45
2018-03-28T03:13:02.346Z,98018.72
2018-03-28T03:15:30.635Z,98021.59
2018-03-28T03:17:58.948Z,98017.92
2018-03-28T03:20:27.238Z,98015.09
2018-03-28T03:22:55.502Z,98020.87
2018-03-28T03:25:23.854Z,98018.36
2018-03-28T03:27:52.185Z,98016.41
2018-03-28T03:30:20.455Z,98019.27
2018-03-28T03:32:48.816Z,98030.08
2018-03-28T03:35:17.112Z,98029.77
2018-03-28T03:37:45.512Z,98036.05
2018-03-28T03:40:13.798Z,98034.54
2018-03-28T03:42:42.094Z,98037.53
2018-03-28T03:45:10.389Z,98045.73
2018-03-28T03:47:38.680Z,98042.98
2018-03-28T03:50:06.958Z,98036.18
2018-03-28T03:52:35.244Z,98052.69
2018-03-28T03:55:04.209Z,98040.73
2018-03-28T03:57:32.511Z,98047.78
2018-03-28T04:00:00.774Z,98042.80
2018-03-28T04:02:29.119Z,98046.36
2018-03-28T04:04:57.397Z,98044.82
2018-03-28T04:07:25.783Z,98064.28
2018-03-28T04:09:54.054Z,98058.37
2018-03-28T04:12:22.349Z,98049.00
2018-03-28T04:14:50.629Z,98049.55
2018-03-28T04:17:18.931Z,98048.25
2018-03-28T04:19:47.292Z,98049.91
2018-03-28T04:22:15.581Z,98046.23
2018-03-28T04:24:43.868Z,98047.14
2018-03-28T04:27:12.307Z,98034.28
2018-03-28T04:29:40.628Z,98050.58
2018-03-28T04:32:08.911Z,98052.41
2018-03-28T04:34:37.219Z,98052.61
2018-03-28T04:37:05.519Z,98052.33
2018-03-28T04:39:34.102Z,98047.34
2018-03-28T04:42:02.395Z,98045.85
2018-03-28T04:44:30.683Z,98042.67
2018-03-28T04:46:58.968Z,98045.53
2018-03-28T04:49:27.310Z,98051.79
2018-03-28T04:51:55.576Z,98046.53
2018-03-28T04:54:23.894Z,98038.61
2018-03-28T04:56:52.188Z,98037.92
2018-03-28T04:59:20.511Z,98031.03
2018-03-28T05:01:48.798Z,98037.49
2018-03-28T05:04:17.921Z,98033.34
2018-03-28T05:06:46.195Z,98027.91
2018-03-28T05:09:14.484Z,98034.56
2018-03-28T05:11:42.753Z,98036.20
2018-03-28T05:14:11.047Z,98045.02
2018-03-28T05:16:39.359Z,98045.39
2018-03-28T05:19:07.646Z,98053.22
2018-03-28T05:21:35.945Z,98061.02
2018-03-28T05:24:04.817Z,98064.31
2018-03-28T05:26:33.096Z,98074.14
2018-03-28T05:29:01.462Z,98063.09
2018-03-28T05:31:29.758Z,98069.06
2018-03-28T05:33:58.034Z,98064.40
2018-03-28T05:36:26.331Z,98063.48
2018-03-28T05:38:54.608Z,98063.31
2018-03-28T05:41:22.945Z,98059.64
2018-03-28T05:43:51.241Z,98063.88
2018-03-28T05:46:19.560Z,98063.23
2018-03-28T05:48:47.979Z,98052.31
2018-03-28T05:51:16.316Z,98072.19
2018-03-28T05:53:44.661Z,98054.06
2018-03-28T05:56:12.935Z,98054.44
2018-03-28T05:58:41.213Z,98045.03
2018-03-28T06:01:09.572Z,98050.30
2018-03-28T06:03:38.805Z,98060.20
2018-03-28T06:06:07.557Z,98051.91
2018-03-28T06:08:35.834Z,98064.34
2018-03-28T06:11:04.335Z,98046.80
2018-03-28T06:13:32.590Z,98062.30
2018-03-28T06:16:00.875Z,98064.67
2018-03-28T06:18:29.178Z,98063.47
2018-03-28T06:20:57.466Z,98053.86
2018-03-28T06:23:25.751Z,98066.02
2018-03-28T06:25:54.048Z,98074.31
2018-03-28T06:28:22.465Z,98079.42
2018-03-28T06:30:50.742Z,98074.01
2018-03-28T06:33:19.079Z,98072.50
2018-03-28T06:35:47.384Z,98065.52
2018-03-28T06:38:15.664Z,98068.66
2018-03-28T06:40:43.921Z,98069.57
2018-03-28T06:43:12.315Z,98064.34
2018-03-28T06:45:40.591Z,98067.41
2018-03-28T06:48:08.900Z,98068.80
2018-03-28T06:50:37.167Z,98061.84
2018-03-28T06:53:05.501Z,98068.52
2018-03-28T06:55:33.773Z,98064.58
2018-03-28T06:58:02.158Z,98059.08
2018-03-28T07:00:30.420Z,98064.70
2018-03-28T07:02:58.741Z,98059.30
2018-03-28T07:05:27.026Z,98062.38
2018-03-28T07:07:55.348Z,98063.16
2018-03-28T07:10:23.835Z,98066.70
2018-03-28T07:12:52.131Z,98064.40
2018-03-28T07:15:20.455Z,98061.66
2018-03-28T07:20:16.231Z,98062.05
2018-03-28T07:22:45.648Z,98060.16
2018-03-28T07:25:14.125Z,98042.41
2018-03-28T07:27:43.067Z,98047.26
2018-03-28T07:30:11.574Z,98045.00
2018-03-28T07:32:39.849Z,98041.91
2018-03-28T07:35:08.209Z,98042.91
2018-03-28T07:37:36.598Z,98044.63
2018-03-28T07:40:04.921Z,98043.08
2018-03-28T07:42:33.209Z,98031.12
2018-03-28T07:45:01.644Z,98031.20
2018-03-28T07:47:30.092Z,98035.64
2018-03-28T07:49:58.415Z,98039.13
2018-03-28T07:52:26.805Z,98032.75
2018-03-28T07:54:55.120Z,98033.34
2018-03-28T07:57:23.432Z,98028.80
2018-03-28T07:59:51.734Z,98022.69
2018-03-28T08:02:20.130Z,98018.53
2018-03-28T08:04:48.959Z,98029.59
2018-03-28T08:07:17.270Z,98029.53
2018-03-28T08:09:45.620Z,98029.80
2018-03-28T08:12:13.897Z,98036.69
2018-03-28T08:14:42.187Z,98044.29
2018-03-28T08:17:10.525Z,98042.93
2018-03-28T08:19:38.986Z,98032.30
2018-03-28T08:22:07.276Z,98032.80
2018-03-28T08:24:35.552Z,98039.03
2018-03-28T08:27:04.386Z,98025.88
2018-03-28T08:29:33.802Z,98038.20
2018-03-28T08:32:02.805Z,98029.78
2018-03-28T08:34:31.134Z,98020.51
2018-03-28T08:36:59.464Z,98021.74
2018-03-28T08:39:27.736Z,98028.88
2018-03-28T08:41:56.080Z,98019.23
2018-03-28T08:44:24.372Z,98027.69
2018-03-28T08:46:52.651Z,98028.16
2018-03-28T08:49:20.954Z,98031.66
2018-03-28T08:51:49.278Z,98026.89
2018-03-28T08:54:17.556Z,98029.98
2018-03-28T08:56:45.839Z,98025.23
2018-03-28T08:59:14.125Z,98018.77
2018-03-28T09:01:42.565Z,98010.73
2018-03-28T09:04:10.933Z,98009.05
2018-03-28T09:06:39.248Z,97981.10
2018-03-28T09:09:07.610Z,97998.02
2018-03-28T09:11:35.958Z,98001.22
2018-03-28T09:14:05.103Z,97994.98
2018-03-28T09:16:33.416Z,97996.92
2018-03-28T09:19:01.868Z,97977.91
2018-03-28T09:21:30.193Z,97991.22
2018-03-28T09:23:58.504Z,97988.27
2018-03-28T09:26:26.920Z,97979.02
2018-03-28T09:28:55.292Z,97982.46
2018-03-28T09:31:23.640Z,97973.17
2018-03-28T09:33:51.992Z,97973.94
2018-03-28T09:36:20.280Z,97969.20
2018-03-28T09:38:48.691Z,97962.03
2018-03-28T09:41:17.085Z,97966.09
2018-03-28T09:43:45.560Z,97961.59
2018-03-28T09:46:13.849Z,97959.77
2018-03-28T09:48:45.232Z,97960.89
2018-03-28T09:51:15.235Z,97955.10
2018-03-28T09:53:43.558Z,97950.38
2018-03-28T09:56:11.864Z,97949.41
2018-03-28T09:58:40.174Z,97950.73
2018-03-28T10:01:08.472Z,97939.08
2018-03-28T10:03:42.485Z,97939.80
2018-03-28T10:06:10.778Z,97924.83
2018-03-28T10:08:39.112Z,97932.75
2018-03-28T10:11:07.391Z,97928.47
2018-03-28T10:13:35.704Z,97927.86
2018-03-28T10:16:04.000Z,97930.22
2018-03-28T10:18:32.337Z,97917.39
2018-03-28T10:21:00.626Z,97910.78
2018-03-28T10:23:28.964Z,97953.56
2018-03-28T10:25:57.239Z,97927.48
2018-03-28T10:28:25.571Z,97917.72
2018-03-28T10:30:54.048Z,97918.03
2018-03-28T10:33:22.469Z,97919.61
2018-03-28T10:35:52.042Z,97909.48
2018-03-28T10:38:20.726Z,97902.47
2018-03-28T10:40:49.020Z,97892.72
2018-03-28T10:43:17.301Z,97889.14
2018-03-28T10:45:45.607Z,97891.42
2018-03-28T10:48:13.894Z,97879.27
2018-03-28T10:50:42.288Z,97870.17
2018-03-28T10:53:11.000Z,97865.44
2018-03-28T10:55:39.298Z,97865.78
2018-03-28T10:58:07.628Z,97856.30
2018-03-28T11:00:36.741Z,97831.87
2018-03-28T11:03:05.545Z,97833.64
2018-03-28T11:05:35.018Z,97832.23
2018-03-28T11:08:04.274Z,97824.54
2018-03-28T11:10:32.676Z,97822.26
2018-03-28T11:13:00.956Z,97805.13
2018-03-28T11:15:29.412Z,97804.98
2018-03-28T11:17:57.656Z,97803.57
2018-03-28T11:20:25.970Z,97798.83
2018-03-28T11:22:54.288Z,97797.20
2018-03-28T11:25:24.924Z,97790.25
2018-03-28T11:27:54.021Z,97788.78
2018-03-28T11:30:22.339Z,97788.95
2018-03-28T11:32:50.733Z,97783.20
2018-03-28T11:35:21.074Z,97777.33
2018-03-28T11:37:51.385Z,97772.95
2018-03-28T11:40:19.834Z,97766.63
2018-03-28T11:42:48.178Z,97757.84
2018-03-28T11:45:18.462Z,97762.36
2018-03-28T11:47:46.868Z,97773.41
2018-03-28T11:50:15.175Z,97762.16
2018-03-28T11:52:43.567Z,97755.87
2018-03-28T11:55:11.861Z,97752.05
2018-03-28T11:57:40.165Z,97754.53
2018-03-28T12:00:09.080Z,97758.03
2018-03-28T12:02:37.740Z,97746.59
2018-03-28T12:05:06.032Z,97747.66
2018-03-28T12:07:35.599Z,97741.43
2018-03-28T12:10:04.811Z,97734.58
2018-03-28T12:12:34.289Z,97729.51
2018-03-28T12:15:02.623Z,97727.53
2018-03-28T12:17:30.955Z,97721.67
2018-03-28T12:19:59.508Z,97711.62
2018-03-28T12:22:27.852Z,97717.03
2018-03-28T12:24:56.156Z,97704.56
2018-03-28T12:27:24.767Z,97705.20
2018-03-28T12:29:54.467Z,97703.72
2018-03-28T12:32:22.749Z,97691.80
2018-03-28T12:34:51.094Z,97684.98
2018-03-28T12:37:20.383Z,97661.09
2018-03-28T12:39:48.703Z,97672.17
2018-03-28T12:42:16.990Z,97665.78
2018-03-28T12:44:45.330Z,97658.75
2018-03-28T12:47:13.725Z,97645.34
2018-03-28T12:49:42.283Z,97641.16
2018-03-28T12:52:10.533Z,97627.22
2018-03-28T12:54:38.821Z,97625.38
2018-03-28T12:57:07.130Z,97613.95
2018-03-28T12:59:35.607Z,97605.45
2018-03-28T13:02:03.882Z,97601.66
2018-03-28T13:04:32.224Z,97583.47
2018-03-28T13:07:00.521Z,97576.88
2018-03-28T13:09:28.845Z,97573.05
2018-03-28T13:11:57.156Z,97568.74
2018-03-28T13:14:25.447Z,97558.06
2018-03-28T13:16:53.763Z,97557.39
2018-03-28T13:19:22.091Z,97545.22
2018-03-28T13:21:50.373Z,97540.36
2018-03-28T13:24:18.783Z,97525.06
2018-03-28T13:26:47.110Z,97522.13
2018-03-28T13:29:15.380Z,97509.02
2018-03-28T13:31:43.709Z,97497.75
2018-03-28T13:34:12.040Z,97497.60
2018-03-28T13:36:40.310Z,97492.75
2018-03-28T13:39:08.648Z,97485.11
2018-03-28T13:41:37.033Z,97474.72
2018-03-28T13:44:06.154Z,97472.92
2018-03-28T13:46:35.940Z,97461.42
2018-03-28T13:49:05.059Z,97454.30
2018-03-28T13:51:33.420Z,97454.13
2018-03-28T13:54:01.695Z,97437.84
2018-03-28T13:56:30.125Z,97434.72
2018-03-28T13:58:58.777Z,97422.36
2018-03-28T14:01:27.926Z,97410.78
2018-03-28T14:03:56.376Z,97416.14
2018-03-28T14:06:24.681Z,97403.16
2018-03-28T14:08:52.978Z,97398.65
2018-03-28T14:11:21.981Z,97396.89
2018-03-28T14:13:50.412Z,97396.17
2018-03-28T14:16:18.754Z,97397.14
2018-03-28T14:18:47.025Z,97397.23
2018-03-28T14:21:15.374Z,97390.92
2018-03-28T14:23:43.766Z,97387.73
2018-03-28T14:26:12.075Z,97383.41
2018-03-28T14:28:40.380Z,97376.00
2018-03-28T14:31:08.765Z,97375.15
2018-03-28T14:33:37.134Z,97367.36
2018-03-28T14:36:06.375Z,97363.56
2018-03-28T14:38:34.691Z,97375.00
2018-03-28T14:41:04.595Z,97367.62
2018-03-28T14:43:32.905Z,97370.21
2018-03-28T14:46:01.239Z,97361.97
2018-03-28T14:48:29.596Z,97354.75
2018-03-28T14:50:57.861Z,97345.02
2018-03-28T14:53:26.212Z,97342.06
2018-03-28T14:55:54.538Z,97337.42
2018-03-28T14:58:22.887Z,97328.05
2018-03-28T15:00:51.120Z,97324.01
2018-03-28T15:03:19.513Z,97323.63
2018-03-28T15:05:47.789Z,97325.14
2018-03-28T15:08:16.269Z,97322.25
2018-03-28T15:10:44.536Z,97317.73
2018-03-28T15:13:13.040Z,97322.56
2018-03-28T15:15:41.292Z,97317.81
2018-03-28T15:18:09.608Z,97304.50
2018-03-28T15:20:37.929Z,97308.80
2018-03-28T15:23:06.280Z,97298.81
2018-03-28T15:25:34.540Z,97302.85
2018-03-28T15:28:02.823Z,97294.52
2018-03-28T15:30:31.159Z,97294.84
2018-03-28T15:32:59.507Z,97292.27
2018-03-28T15:35:27.845Z,97279.96
2018-03-28T15:37:56.101Z,97277.81
2018-03-28T15:40:24.423Z,97277.50
2018-03-28T15:42:52.705Z,97272.13
2018-03-28T15:45:21.011Z,97270.08
2018-03-28T15:47:49.380Z,97265.97
2018-03-28T15:50:17.747Z,97273.59
2018-03-28T15:52:46.124Z,97259.75
2018-03-28T15:55:14.456Z,97265.59
2018-03-28T15:57:42.770Z,97259.51
2018-03-28T16:00:11.068Z,97256.61
2018-03-28T16:02:39.350Z,97253.43
2018-03-28T16:05:07.703Z,97255.38
2018-03-28T16:07:35.992Z,97251.34
2018-03-28T16:10:04.367Z,97235.22
2018-03-28T16:12:33.566Z,97243.30
2018-03-28T16:15:01.906Z,97236.07
2018-03-28T16:17:30.240Z,97239.64
2018-03-28T16:19:58.735Z,97229.51
2018-03-28T16:22:27.075Z,97231.30
2018-03-28T16:24:55.392Z,97234.97
2018-03-28T16:27:24.364Z,97235.14
2018-03-28T16:29:52.706Z,97230.23
2018-03-28T16:32:20.934Z,97227.73
2018-03-28T16:34:49.205Z,97238.23
2018-03-28T16:37:17.550Z,97234.67
2018-03-28T16:39:45.812Z,97228.36
2018-03-28T16:42:14.162Z,97223.28
2018-03-28T16:44:42.567Z,97224.86
2018-03-28T16:47:10.997Z,97229.83
2018-03-28T16:49:39.336Z,97232.63
2018-03-28T16:52:07.671Z,97227.34
2018-03-28T16:54:36.039Z,97211.64
2018-03-28T16:57:05.250Z,97220.27
2018-03-28T16:59:33.683Z,97218.63
2018-03-28T17:02:02.072Z,97215.30
2018-03-28T17:04:30.390Z,97206.89
2018-03-28T17:06:58.734Z,97222.98
2018-03-28T17:09:27.082Z,97221.66
2018-03-28T17:11:55.388Z,97223.06
2018-03-28T17:14:23.672Z,97217.41
2018-03-28T17:16:52.008Z,97211.72
2018-03-28T17:19:20.355Z,97203.86
2018-03-28T17:21:48.651Z,97204.53
2018-03-28T17:24:16.949Z,97205.97
2018-03-28T17:26:45.285Z,97215.30
2018-03-28T17:29:13.612Z,97214.52
2018-03-28T17:31:41.933Z,97215.53
2018-03-28T17:34:10.229Z,97214.53
2018-03-28T17:36:38.507Z,97211.55
2018-03-28T17:39:06.817Z,97213.34
2018-03-28T17:41:35.271Z,97203.63
2018-03-28T17:44:03.578Z,97202.16
2018-03-28T17:46:31.974Z,97203.17
2018-03-28T17:49:00.355Z,97210.70
2018-03-28T17:51:28.678Z,97216.47
2018-03-28T17:53:56.952Z,97197.95
2018-03-28T17:56:25.247Z,97212.50
2018-03-28T17:58:54.299Z,97212.42
2018-03-28T18:01:23.517Z,97216.39
2018-03-28T18:03:52.002Z,97229.94
2018-03-28T18:06:20.340Z,97223.72
2018-03-28T18:08:49.544Z,97229.70
2018-03-28T18:11:17.950Z,97234.84
2018-03-28T18:13:47.024Z,97242.85
2018-03-28T18:16:15.915Z,97260.17
2018-03-28T18:18:44.208Z,97282.89
2018-03-28T18:21:12.495Z,97282.64
2018-03-28T18:23:41.529Z,97279.45
2018-03-28T18:26:09.819Z,97283.16
2018-03-28T18:28:38.158Z,97292.63
2018-03-28T18:31:06.492Z,97294.89
2018-03-28T18:33:34.807Z,97293.48
2018-03-28T18:36:03.147Z,97274.72
2018-03-28T18:38:31.447Z,97297.52
2018-03-28T18:40:59.752Z,97286.20
2018-03-28T18:43:28.020Z,97296.45
2018-03-28T18:45:56.781Z,97315.56
2018-03-28T18:48:25.131Z,97282.86
2018-03-28T18:50:53.603Z,97302.39
2018-03-28T18:53:21.959Z,97299.59
2018-03-28T18:55:50.547Z,97306.64
2018-03-28T18:58:18.846Z,97309.02
2018-03-28T19:00:47.159Z,97315.88
2018-03-28T19:03:15.496Z,97317.33
2018-03-28T19:05:43.817Z,97318.19
2018-03-28T19:08:12.104Z,97323.15
2018-03-28T19:10:40.388Z,97323.88
2018-03-28T19:13:08.698Z,97318.14
2018-03-28T19:15:37.002Z,97320.50
2018-03-28T19:18:05.504Z,97331.01
2018-03-28T19:20:33.834Z,97291.98
2018-03-28T19:23:02.142Z,97330.39
2018-03-28T19:25:30.436Z,97326.19
2018-03-28T19:27:58.781Z,97326.88
2018-03-28T19:30:27.136Z,97346.69
2018-03-28T19:32:55.350Z,97348.57
2018-03-28T19:35:23.643Z,97355.65
2018-03-28T19:37:51.976Z,97367.70
2018-03-28T19:40:20.272Z,97385.78
2018-03-28T19:42:48.591Z,97368.98
2018-03-28T19:45:16.853Z,97406.66
2018-03-28T19:47:45.200Z,97391.28
2018-03-28T19:50:13.496Z,97393.64
2018-03-28T19:52:41.843Z,97416.05
2018-03-28T19:55:10.163Z,97430.78
2018-03-28T19:57:38.481Z,97455.29
2018-03-28T20:00:06.788Z,97434.45
2018-03-28T20:02:35.175Z,97437.02
2018-03-28T20:05:03.540Z,97452.45
2018-03-28T20:07:31.894Z,97461.77
2018-03-28T20:10:00.316Z,97463.11
2018-03-28T20:12:28.676Z,97467.61
2018-03-28T20:14:57.103Z,97470.53
2018-03-28T20:17:25.468Z,97491.58
2018-03-28T20:19:53.772Z,97495.44
2018-03-28T20:22:22.232Z,97491.38
2018-03-28T20:24:50.569Z,97507.38
2018-03-28T20:27:18.965Z,97504.23
2018-03-28T20:29:47.369Z,97520.10
2018-03-28T20:32:16.006Z,97515.66
2018-03-28T20:34:44.355Z,97524.52
2018-03-28T20:37:12.713Z,97522.08
2018-03-28T20:39:41.754Z,97521.22
2018-03-28T20:42:10.945Z,97536.42
2018-03-28T20:44:40.177Z,97537.84
2018-03-28T20:47:09.192Z,97536.48
2018-03-28T20:49:37.540Z,97539.35
2018-03-28T20:52:05.969Z,97545.64
2018-03-28T20:54:34.335Z,97553.80
2018-03-28T20:57:03.305Z,97558.79
2018-03-28T20:59:31.692Z,97559.12
2018-03-28T21:02:00.072Z,97569.51
2018-03-28T21:04:28.362Z,97587.38
2018-03-28T21:06:56.628Z,97596.13
2018-03-28T21:09:25.089Z,97600.87
2018-03-28T21:11:53.666Z,97589.16
2018-03-28T21:14:21.943Z,97581.68
2018-03-28T21:16:50.215Z,97591.48
2018-03-28T21:19:19.212Z,97604.58
2018-03-28T21:21:47.519Z,97607.08
2018-03-28T21:24:15.838Z,97608.97
2018-03-28T21:26:44.139Z,97615.19
2018-03-28T21:29:13.348Z,97594.53
2018-03-28T21:31:41.603Z,97599.45
2018-03-28T21:34:09.970Z,97604.73
2018-03-28T21:36:38.257Z,97595.51
2018-03-28T21:39:06.543Z,97597.39
2018-03-28T21:41:34.797Z,97602.19
2018-03-28T21:44:03.109Z,97589.66
2018-03-28T21:46:31.419Z,97597.12
2018-03-28T21:48:59.694Z,97625.27
2018-03-28T21:51:28.008Z,97632.12
2018-03-28T21:53:56.606Z,97626.70
2018-03-28T21:56:24.886Z,97603.53
2018-03-28T21:58:53.445Z,97597.34
2018-03-28T22:01:21.727Z,97622.67
2018-03-28T22:03:50.028Z,97627.85
2018-03-28T22:06:18.338Z,97645.22
2018-03-28T22:08:46.610Z,97641.10
2018-03-28T22:11:14.900Z,97655.19
2018-03-28T22:13:43.191Z,97662.02
2018-03-28T22:16:11.550Z,97684.59
2018-03-28T22:18:39.764Z,97666.63
2018-03-28T22:21:08.065Z,97680.00
2018-03-28T22:23:36.402Z,97698.37
2018-03-28T22:26:05.575Z,97694.75
2018-03-28T22:28:33.838Z,97703.77
2018-03-28T22:31:02.441Z,97709.36
2018-03-28T22:33:30.704Z,97716.25
2018-03-28T22:35:59.007Z,97715.62
2018-03-28T22:38:27.296Z,97729.23
2018-03-28T22:40:55.644Z,97732.73
2018-03-28T22:43:23.878Z,97728.86
2018-03-28T22:45:52.239Z,97733.16
2018-03-28T22:48:20.535Z,97739.13
2018-03-28T22:50:48.812Z,97746.73
2018-03-28T22:53:17.092Z,97733.00
2018-03-28T22:55:45.418Z,97757.18
2018-03-28T22:58:13.747Z,97771.58
2018-03-28T23:00:42.055Z,97762.35
2018-03-28T23:03:10.354Z,97770.96
2018-03-28T23:05:38.644Z,97774.24
2018-03-28T23:08:07.693Z,97783.45
2018-03-28T23:10:35.966Z,97788.21
2018-03-28T23:13:04.329Z,97799.52
2018-03-28T23:15:32.578Z,97812.81
2018-03-28T23:18:00.886Z,97817.47
2018-03-28T23:20:29.150Z,97819.97
2018-03-28T23:22:57.456Z,97824.23
2018-03-28T23:25:25.712Z,97825.27
2018-03-28T23:27:54.025Z,97844.19
2018-03-28T23:30:22.298Z,97834.34
2018-03-28T23:32:50.597Z,97835.86
2018-03-28T23:35:18.933Z,97832.18
2018-03-28T23:37:47.239Z,97835.78
2018-03-28T23:40:15.506Z,97839.33
2018-03-28T23:42:43.824Z,97827.29
2018-03-28T23:45:12.207Z,97845.16
2018-03-28T23:47:40.485Z,97844.64
2018-03-28T23:50:08.764Z,97855.22
2018-03-28T23:52:37.019Z,97862.13
2018-03-28T23:55:05.331Z,97854.37
2018-03-28T23:57:33.593Z,97861.21
